sensor_id;sensor_type;location;lat;lon;timestamp;temperature;humidity
4687;DHT22;2357;47.316;-1.348;2023-05-10T00:02:25;13.00;99.90
4687;DHT22;2357;47.316;-1.348;2023-05-10T00:04:50;13.00;99.90
4687;DHT22;2357;47.316;-1.348;2023-05-10T00:07:16;12.90;99.90
4687;DHT22;2357;47.316;-1.348;2023-05-10T00:09:45;12.80;99.90
4687;DHT22;2357;47.316;-1.348;2023-05-10T00:12:10;12.90;99.90
4687;DHT22;2357;47.316;-1.348;2023-05-10T00:14:36;13.00;99.90
4687;DHT22;2357;47.316;-1.348;2023-05-10T00:17:02;12.80;99.90
4687;DHT22;2357;47.316;-1.348;2023-05-10T00:19:27;12.80;99.90
4687;DHT22;2357;47.316;-1.348;2023-05-10T00:21:53;12.80;99.90
4687;DHT22;2357;47.316;-1.348;2023-05-10T00:24:19;12.80;99.90
4687;DHT22;2357;47.316;-1.348;2023-05-10T00:26:45;12.90;99.90
4687;DHT22;2357;47.316;-1.348;2023-05-10T00:29:10;12.70;99.90
4687;DHT22;2357;47.316;-1.348;2023-05-10T00:31:36;12.70;99.90
4687;DHT22;2357;47.316;-1.348;2023-05-10T00:34:02;12.80;99.90
4687;DHT22;2357;47.316;-1.348;2023-05-10T00:36:27;12.80;99.90
4687;DHT22;2357;47.316;-1.348;2023-05-10T00:38:53;12.80;99.90
4687;DHT22;2357;47.316;-1.348;2023-05-10T00:41:18;12.80;99.90
4687;DHT22;2357;47.316;-1.348;2023-05-10T00:43:44;12.70;99.90
4687;DHT22;2357;47.316;-1.348;2023-05-10T00:46:10;12.60;99.90
4687;DHT22;2357;47.316;-1.348;2023-05-10T00:48:36;12.60;99.90
4687;DHT22;2357;47.316;-1.348;2023-05-10T00:51:02;12.50;99.90
4687;DHT22;2357;47.316;-1.348;2023-05-10T00:53:28;12.60;99.90
4687;DHT22;2357;47.316;-1.348;2023-05-10T00:55:56;12.50;99.90
4687;DHT22;2357;47.316;-1.348;2023-05-10T00:58:22;12.50;99.90
4687;DHT22;2357;47.316;-1.348;2023-05-10T01:00:49;12.50;99.90
4687;DHT22;2357;47.316;-1.348;2023-05-10T01:03:15;12.60;99.90
4687;DHT22;2357;47.316;-1.348;2023-05-10T01:05:42;12.50;99.90
4687;DHT22;2357;47.316;-1.348;2023-05-10T01:08:08;12.40;99.90
4687;DHT22;2357;47.316;-1.348;2023-05-10T01:10:34;12.40;99.90
4687;DHT22;2357;47.316;-1.348;2023-05-10T01:12:59;12.30;99.90
4687;DHT22;2357;47.316;-1.348;2023-05-10T01:15:26;12.40;99.90
4687;DHT22;2357;47.316;-1.348;2023-05-10T01:17:52;12.30;99.90
4687;DHT22;2357;47.316;-1.348;2023-05-10T01:43:28;12.00;99.90
4687;DHT22;2357;47.316;-1.348;2023-05-10T01:46:07;12.00;99.90
4687;DHT22;2357;47.316;-1.348;2023-05-10T01:48:41;12.00;99.90
4687;DHT22;2357;47.316;-1.348;2023-05-10T01:51:13;11.90;99.90
4687;DHT22;2357;47.316;-1.348;2023-05-10T01:53:40;12.00;99.90
4687;DHT22;2357;47.316;-1.348;2023-05-10T01:56:07;12.00;99.90
4687;DHT22;2357;47.316;-1.348;2023-05-10T01:58:34;11.90;99.90
4687;DHT22;2357;47.316;-1.348;2023-05-10T02:01:03;12.00;99.90
4687;DHT22;2357;47.316;-1.348;2023-05-10T02:03:32;12.00;99.90
4687;DHT22;2357;47.316;-1.348;2023-05-10T02:05:59;12.00;99.90
4687;DHT22;2357;47.316;-1.348;2023-05-10T02:08:25;12.00;99.90
4687;DHT22;2357;47.316;-1.348;2023-05-10T02:10:53;12.00;99.90
4687;DHT22;2357;47.316;-1.348;2023-05-10T02:13:20;11.90;99.90
4687;DHT22;2357;47.316;-1.348;2023-05-10T02:15:49;11.80;99.90
4687;DHT22;2357;47.316;-1.348;2023-05-10T02:18:16;11.90;99.90
4687;DHT22;2357;47.316;-1.348;2023-05-10T02:20:45;11.80;99.90
4687;DHT22;2357;47.316;-1.348;2023-05-10T02:23:11;11.70;99.90
4687;DHT22;2357;47.316;-1.348;2023-05-10T02:25:37;11.80;99.90
4687;DHT22;2357;47.316;-1.348;2023-05-10T02:28:06;11.80;99.90
4687;DHT22;2357;47.316;-1.348;2023-05-10T02:30:33;11.70;99.90
4687;DHT22;2357;47.316;-1.348;2023-05-10T02:33:00;11.60;99.90
4687;DHT22;2357;47.316;-1.348;2023-05-10T02:35:27;11.70;99.90
4687;DHT22;2357;47.316;-1.348;2023-05-10T02:37:54;11.70;99.90
4687;DHT22;2357;47.316;-1.348;2023-05-10T02:40:21;11.60;99.90
4687;DHT22;2357;47.316;-1.348;2023-05-10T02:42:50;11.60;99.90
4687;DHT22;2357;47.316;-1.348;2023-05-10T02:45:20;11.60;99.90
4687;DHT22;2357;47.316;-1.348;2023-05-10T02:47:47;11.60;99.90
4687;DHT22;2357;47.316;-1.348;2023-05-10T02:50:13;11.60;99.90
4687;DHT22;2357;47.316;-1.348;2023-05-10T02:52:51;11.60;99.90
4687;DHT22;2357;47.316;-1.348;2023-05-10T02:55:21;11.50;99.90
4687;DHT22;2357;47.316;-1.348;2023-05-10T02:57:57;11.60;99.90
4687;DHT22;2357;47.316;-1.348;2023-05-10T03:00:25;11.60;99.90
4687;DHT22;2357;47.316;-1.348;2023-05-10T03:02:50;11.60;99.90
4687;DHT22;2357;47.316;-1.348;2023-05-10T03:05:16;11.60;99.90
4687;DHT22;2357;47.316;-1.348;2023-05-10T03:07:42;11.60;99.90
4687;DHT22;2357;47.316;-1.348;2023-05-10T03:10:08;11.60;99.90
4687;DHT22;2357;47.316;-1.348;2023-05-10T03:12:59;11.50;99.90
4687;DHT22;2357;47.316;-1.348;2023-05-10T03:16:03;11.50;99.90
4687;DHT22;2357;47.316;-1.348;2023-05-10T03:18:54;11.50;99.90
4687;DHT22;2357;47.316;-1.348;2023-05-10T03:21:22;11.50;99.90
4687;DHT22;2357;47.316;-1.348;2023-05-10T03:23:58;11.50;99.90
4687;DHT22;2357;47.316;-1.348;2023-05-10T03:26:26;11.50;99.90
4687;DHT22;2357;47.316;-1.348;2023-05-10T03:28:52;11.50;99.90
4687;DHT22;2357;47.316;-1.348;2023-05-10T03:31:19;11.50;99.90
4687;DHT22;2357;47.316;-1.348;2023-05-10T03:33:48;11.40;99.90
4687;DHT22;2357;47.316;-1.348;2023-05-10T03:36:14;11.30;99.90
4687;DHT22;2357;47.316;-1.348;2023-05-10T03:38:40;11.30;99.90
4687;DHT22;2357;47.316;-1.348;2023-05-10T03:41:05;11.30;99.90
4687;DHT22;2357;47.316;-1.348;2023-05-10T03:43:31;11.40;99.90
4687;DHT22;2357;47.316;-1.348;2023-05-10T03:45:57;11.40;99.90
4687;DHT22;2357;47.316;-1.348;2023-05-10T03:48:22;11.40;99.90
4687;DHT22;2357;47.316;-1.348;2023-05-10T03:50:48;11.40;99.90
4687;DHT22;2357;47.316;-1.348;2023-05-10T03:53:15;11.40;99.90
4687;DHT22;2357;47.316;-1.348;2023-05-10T03:55:40;11.40;99.90
4687;DHT22;2357;47.316;-1.348;2023-05-10T03:58:06;11.30;99.90
4687;DHT22;2357;47.316;-1.348;2023-05-10T04:00:32;11.30;99.90
4687;DHT22;2357;47.316;-1.348;2023-05-10T04:02:58;11.30;99.90
4687;DHT22;2357;47.316;-1.348;2023-05-10T04:05:24;11.30;99.90
4687;DHT22;2357;47.316;-1.348;2023-05-10T04:07:49;11.20;99.90
4687;DHT22;2357;47.316;-1.348;2023-05-10T04:10:16;11.20;99.90
4687;DHT22;2357;47.316;-1.348;2023-05-10T04:12:42;11.20;99.90
4687;DHT22;2357;47.316;-1.348;2023-05-10T04:15:08;11.20;99.90
4687;DHT22;2357;47.316;-1.348;2023-05-10T04:17:34;11.20;99.90
4687;DHT22;2357;47.316;-1.348;2023-05-10T04:19:59;11.10;99.90
4687;DHT22;2357;47.316;-1.348;2023-05-10T04:22:25;11.10;99.90
4687;DHT22;2357;47.316;-1.348;2023-05-10T04:24:50;11.20;99.90
4687;DHT22;2357;47.316;-1.348;2023-05-10T04:27:16;11.20;99.90
4687;DHT22;2357;47.316;-1.348;2023-05-10T04:29:42;11.30;99.90
4687;DHT22;2357;47.316;-1.348;2023-05-10T04:32:08;11.20;99.90
4687;DHT22;2357;47.316;-1.348;2023-05-10T04:34:36;11.30;99.90
4687;DHT22;2357;47.316;-1.348;2023-05-10T04:37:02;11.30;99.90
4687;DHT22;2357;47.316;-1.348;2023-05-10T04:39:27;11.30;99.90
4687;DHT22;2357;47.316;-1.348;2023-05-10T04:41:53;11.40;99.90
4687;DHT22;2357;47.316;-1.348;2023-05-10T04:44:18;11.40;99.90
4687;DHT22;2357;47.316;-1.348;2023-05-10T04:46:44;11.40;99.90
4687;DHT22;2357;47.316;-1.348;2023-05-10T04:49:09;11.50;99.90
4687;DHT22;2357;47.316;-1.348;2023-05-10T04:51:35;11.50;99.90
4687;DHT22;2357;47.316;-1.348;2023-05-10T04:54:01;11.50;99.90
4687;DHT22;2357;47.316;-1.348;2023-05-10T04:56:26;11.50;99.90
4687;DHT22;2357;47.316;-1.348;2023-05-10T04:58:52;11.60;99.90
4687;DHT22;2357;47.316;-1.348;2023-05-10T05:01:18;11.60;99.90
4687;DHT22;2357;47.316;-1.348;2023-05-10T05:03:43;11.70;99.90
4687;DHT22;2357;47.316;-1.348;2023-05-10T05:06:09;11.70;99.90
4687;DHT22;2357;47.316;-1.348;2023-05-10T05:08:35;11.70;99.90
4687;DHT22;2357;47.316;-1.348;2023-05-10T05:11:00;11.60;99.90
4687;DHT22;2357;47.316;-1.348;2023-05-10T05:13:26;11.60;99.90
4687;DHT22;2357;47.316;-1.348;2023-05-10T05:15:52;11.60;99.90
4687;DHT22;2357;47.316;-1.348;2023-05-10T05:18:17;11.60;99.90
4687;DHT22;2357;47.316;-1.348;2023-05-10T05:20:43;11.70;99.90
4687;DHT22;2357;47.316;-1.348;2023-05-10T05:23:08;11.60;99.90
4687;DHT22;2357;47.316;-1.348;2023-05-10T05:25:34;11.60;99.90
4687;DHT22;2357;47.316;-1.348;2023-05-10T05:28:00;11.70;99.90
4687;DHT22;2357;47.316;-1.348;2023-05-10T05:30:27;11.70;99.90
4687;DHT22;2357;47.316;-1.348;2023-05-10T05:32:52;11.80;99.90
4687;DHT22;2357;47.316;-1.348;2023-05-10T05:35:18;11.80;99.90
4687;DHT22;2357;47.316;-1.348;2023-05-10T05:37:44;11.90;99.90
4687;DHT22;2357;47.316;-1.348;2023-05-10T05:40:12;11.90;99.90
4687;DHT22;2357;47.316;-1.348;2023-05-10T05:42:38;11.80;99.90
4687;DHT22;2357;47.316;-1.348;2023-05-10T05:45:04;11.90;99.90
4687;DHT22;2357;47.316;-1.348;2023-05-10T05:47:30;12.00;99.90
4687;DHT22;2357;47.316;-1.348;2023-05-10T05:49:56;12.10;99.90
4687;DHT22;2357;47.316;-1.348;2023-05-10T05:52:21;12.20;99.90
4687;DHT22;2357;47.316;-1.348;2023-05-10T05:54:47;12.10;99.90
4687;DHT22;2357;47.316;-1.348;2023-05-10T05:57:13;12.20;99.90
4687;DHT22;2357;47.316;-1.348;2023-05-10T05:59:38;12.30;99.90
4687;DHT22;2357;47.316;-1.348;2023-05-10T06:02:09;12.40;99.90
4687;DHT22;2357;47.316;-1.348;2023-05-10T06:04:35;12.30;99.90
4687;DHT22;2357;47.316;-1.348;2023-05-10T06:07:01;12.30;99.90
4687;DHT22;2357;47.316;-1.348;2023-05-10T06:09:26;12.40;99.90
4687;DHT22;2357;47.316;-1.348;2023-05-10T06:11:52;12.40;99.90
4687;DHT22;2357;47.316;-1.348;2023-05-10T06:14:19;12.50;99.90
4687;DHT22;2357;47.316;-1.348;2023-05-10T06:16:45;12.50;99.90
4687;DHT22;2357;47.316;-1.348;2023-05-10T06:19:10;12.60;99.90
4687;DHT22;2357;47.316;-1.348;2023-05-10T06:21:36;12.70;99.90
4687;DHT22;2357;47.316;-1.348;2023-05-10T06:24:02;12.80;99.90
4687;DHT22;2357;47.316;-1.348;2023-05-10T06:26:28;12.90;99.90
4687;DHT22;2357;47.316;-1.348;2023-05-10T06:28:53;13.00;99.90
4687;DHT22;2357;47.316;-1.348;2023-05-10T06:31:19;13.00;99.90
4687;DHT22;2357;47.316;-1.348;2023-05-10T06:33:45;13.00;99.90
4687;DHT22;2357;47.316;-1.348;2023-05-10T06:36:10;12.80;99.90
4687;DHT22;2357;47.316;-1.348;2023-05-10T06:38:36;12.80;99.90
4687;DHT22;2357;47.316;-1.348;2023-05-10T06:41:02;12.70;99.90
4687;DHT22;2357;47.316;-1.348;2023-05-10T06:43:28;12.70;99.90
4687;DHT22;2357;47.316;-1.348;2023-05-10T06:45:54;12.80;99.90
4687;DHT22;2357;47.316;-1.348;2023-05-10T06:48:19;12.90;99.90
4687;DHT22;2357;47.316;-1.348;2023-05-10T06:50:45;13.00;99.90
4687;DHT22;2357;47.316;-1.348;2023-05-10T06:53:11;13.00;99.90
4687;DHT22;2357;47.316;-1.348;2023-05-10T06:55:37;13.10;99.90
4687;DHT22;2357;47.316;-1.348;2023-05-10T06:58:03;13.20;99.90
4687;DHT22;2357;47.316;-1.348;2023-05-10T07:00:28;13.20;99.90
4687;DHT22;2357;47.316;-1.348;2023-05-10T07:02:54;13.20;99.90
4687;DHT22;2357;47.316;-1.348;2023-05-10T07:05:20;13.20;99.90
4687;DHT22;2357;47.316;-1.348;2023-05-10T07:07:46;13.10;99.90
4687;DHT22;2357;47.316;-1.348;2023-05-10T07:10:11;13.20;99.90
4687;DHT22;2357;47.316;-1.348;2023-05-10T07:12:37;13.30;99.90
4687;DHT22;2357;47.316;-1.348;2023-05-10T07:15:04;13.40;99.90
4687;DHT22;2357;47.316;-1.348;2023-05-10T07:17:30;13.40;99.90
4687;DHT22;2357;47.316;-1.348;2023-05-10T07:19:55;13.60;99.90
4687;DHT22;2357;47.316;-1.348;2023-05-10T07:22:21;13.60;99.90
4687;DHT22;2357;47.316;-1.348;2023-05-10T07:24:47;13.60;99.90
4687;DHT22;2357;47.316;-1.348;2023-05-10T07:27:13;13.60;99.90
4687;DHT22;2357;47.316;-1.348;2023-05-10T07:29:38;13.80;99.90
4687;DHT22;2357;47.316;-1.348;2023-05-10T07:32:04;14.00;99.90
4687;DHT22;2357;47.316;-1.348;2023-05-10T07:34:31;14.10;99.90
4687;DHT22;2357;47.316;-1.348;2023-05-10T07:37:00;14.00;99.90
4687;DHT22;2357;47.316;-1.348;2023-05-10T07:39:26;14.00;99.90
4687;DHT22;2357;47.316;-1.348;2023-05-10T07:41:52;14.00;99.90
4687;DHT22;2357;47.316;-1.348;2023-05-10T07:44:18;14.00;99.90
4687;DHT22;2357;47.316;-1.348;2023-05-10T07:46:44;14.00;99.90
4687;DHT22;2357;47.316;-1.348;2023-05-10T07:49:10;14.10;99.90
4687;DHT22;2357;47.316;-1.348;2023-05-10T07:51:35;14.10;99.90
4687;DHT22;2357;47.316;-1.348;2023-05-10T07:54:01;14.10;99.90
4687;DHT22;2357;47.316;-1.348;2023-05-10T07:56:29;14.20;99.90
4687;DHT22;2357;47.316;-1.348;2023-05-10T07:58:57;14.30;99.90
4687;DHT22;2357;47.316;-1.348;2023-05-10T08:01:23;14.30;99.90
4687;DHT22;2357;47.316;-1.348;2023-05-10T08:03:49;14.50;99.90
4687;DHT22;2357;47.316;-1.348;2023-05-10T08:06:17;14.60;99.90
4687;DHT22;2357;47.316;-1.348;2023-05-10T08:08:43;14.50;99.90
4687;DHT22;2357;47.316;-1.348;2023-05-10T08:11:17;14.50;99.90
4687;DHT22;2357;47.316;-1.348;2023-05-10T08:13:44;14.60;99.90
4687;DHT22;2357;47.316;-1.348;2023-05-10T08:16:10;14.60;99.90
4687;DHT22;2357;47.316;-1.348;2023-05-10T08:18:36;14.50;99.90
4687;DHT22;2357;47.316;-1.348;2023-05-10T08:21:02;14.50;99.90
4687;DHT22;2357;47.316;-1.348;2023-05-10T08:23:28;14.50;99.90
4687;DHT22;2357;47.316;-1.348;2023-05-10T08:25:54;14.60;99.90
4687;DHT22;2357;47.316;-1.348;2023-05-10T08:28:19;14.80;99.90
4687;DHT22;2357;47.316;-1.348;2023-05-10T08:30:45;14.90;99.90
4687;DHT22;2357;47.316;-1.348;2023-05-10T08:33:10;14.80;99.90
4687;DHT22;2357;47.316;-1.348;2023-05-10T08:35:36;15.00;99.90
4687;DHT22;2357;47.316;-1.348;2023-05-10T08:38:02;15.10;99.90
4687;DHT22;2357;47.316;-1.348;2023-05-10T08:40:28;15.30;99.90
4687;DHT22;2357;47.316;-1.348;2023-05-10T08:43:05;15.30;99.90
4687;DHT22;2357;47.316;-1.348;2023-05-10T08:45:41;15.40;99.90
4687;DHT22;2357;47.316;-1.348;2023-05-10T08:48:09;15.50;99.90
4687;DHT22;2357;47.316;-1.348;2023-05-10T08:50:39;15.40;99.90
4687;DHT22;2357;47.316;-1.348;2023-05-10T08:53:09;15.20;99.90
4687;DHT22;2357;47.316;-1.348;2023-05-10T08:55:35;15.40;99.90
4687;DHT22;2357;47.316;-1.348;2023-05-10T08:58:07;15.50;99.90
4687;DHT22;2357;47.316;-1.348;2023-05-10T09:00:33;15.70;99.90
4687;DHT22;2357;47.316;-1.348;2023-05-10T09:02:59;16.00;99.90
4687;DHT22;2357;47.316;-1.348;2023-05-10T09:05:25;16.40;99.90
4687;DHT22;2357;47.316;-1.348;2023-05-10T09:07:51;16.10;99.90
4687;DHT22;2357;47.316;-1.348;2023-05-10T09:10:17;15.90;99.90
4687;DHT22;2357;47.316;-1.348;2023-05-10T09:12:44;15.60;99.90
4687;DHT22;2357;47.316;-1.348;2023-05-10T09:15:11;15.30;99.90
4687;DHT22;2357;47.316;-1.348;2023-05-10T09:17:38;15.30;99.90
4687;DHT22;2357;47.316;-1.348;2023-05-10T09:20:06;15.10;99.90
4687;DHT22;2357;47.316;-1.348;2023-05-10T09:22:32;15.20;99.90
4687;DHT22;2357;47.316;-1.348;2023-05-10T09:25:09;15.30;99.90
4687;DHT22;2357;47.316;-1.348;2023-05-10T09:27:36;15.30;99.90
4687;DHT22;2357;47.316;-1.348;2023-05-10T09:30:03;15.50;99.90
4687;DHT22;2357;47.316;-1.348;2023-05-10T09:32:45;15.40;99.90
4687;DHT22;2357;47.316;-1.348;2023-05-10T09:35:13;15.50;99.90
4687;DHT22;2357;47.316;-1.348;2023-05-10T09:37:40;15.60;99.90
4687;DHT22;2357;47.316;-1.348;2023-05-10T09:40:08;15.80;99.90
4687;DHT22;2357;47.316;-1.348;2023-05-10T09:42:36;16.10;99.90
4687;DHT22;2357;47.316;-1.348;2023-05-10T09:45:03;16.00;99.90
4687;DHT22;2357;47.316;-1.348;2023-05-10T09:47:31;15.90;99.90
4687;DHT22;2357;47.316;-1.348;2023-05-10T09:49:58;16.20;99.90
4687;DHT22;2357;47.316;-1.348;2023-05-10T09:52:45;16.10;99.90
4687;DHT22;2357;47.316;-1.348;2023-05-10T09:55:11;16.10;99.90
4687;DHT22;2357;47.316;-1.348;2023-05-10T09:57:36;15.80;99.90
4687;DHT22;2357;47.316;-1.348;2023-05-10T10:00:02;15.80;99.90
4687;DHT22;2357;47.316;-1.348;2023-05-10T10:02:31;15.90;99.90
4687;DHT22;2357;47.316;-1.348;2023-05-10T10:04:57;16.00;99.90
4687;DHT22;2357;47.316;-1.348;2023-05-10T10:07:24;16.40;99.90
4687;DHT22;2357;47.316;-1.348;2023-05-10T10:09:53;16.50;99.90
4687;DHT22;2357;47.316;-1.348;2023-05-10T10:12:19;16.30;99.90
4687;DHT22;2357;47.316;-1.348;2023-05-10T10:14:48;16.50;99.90
4687;DHT22;2357;47.316;-1.348;2023-05-10T10:17:16;17.00;99.90
4687;DHT22;2357;47.316;-1.348;2023-05-10T10:19:42;17.20;99.90
4687;DHT22;2357;47.316;-1.348;2023-05-10T10:22:07;17.30;99.90
4687;DHT22;2357;47.316;-1.348;2023-05-10T10:24:33;17.00;99.90
4687;DHT22;2357;47.316;-1.348;2023-05-10T10:27:20;17.10;99.90
4687;DHT22;2357;47.316;-1.348;2023-05-10T10:30:01;17.10;99.90
4687;DHT22;2357;47.316;-1.348;2023-05-10T10:35:33;17.60;99.90
4687;DHT22;2357;47.316;-1.348;2023-05-10T10:38:00;18.00;99.90
4687;DHT22;2357;47.316;-1.348;2023-05-10T10:40:33;18.20;99.90
4687;DHT22;2357;47.316;-1.348;2023-05-10T10:43:25;17.80;99.90
4687;DHT22;2357;47.316;-1.348;2023-05-10T10:46:16;17.40;99.90
4687;DHT22;2357;47.316;-1.348;2023-05-10T10:48:50;17.20;99.90
4687;DHT22;2357;47.316;-1.348;2023-05-10T10:51:37;17.00;99.90
4687;DHT22;2357;47.316;-1.348;2023-05-10T10:54:12;16.90;99.90
4687;DHT22;2357;47.316;-1.348;2023-05-10T10:56:38;16.70;99.90
4687;DHT22;2357;47.316;-1.348;2023-05-10T10:59:03;17.20;99.90
4687;DHT22;2357;47.316;-1.348;2023-05-10T11:01:33;17.90;99.90
4687;DHT22;2357;47.316;-1.348;2023-05-10T11:06:35;18.00;99.90
4687;DHT22;2357;47.316;-1.348;2023-05-10T11:09:08;17.70;99.90
4687;DHT22;2357;47.316;-1.348;2023-05-10T11:11:35;17.60;99.90
4687;DHT22;2357;47.316;-1.348;2023-05-10T11:14:07;17.60;99.90
4687;DHT22;2357;47.316;-1.348;2023-05-10T11:16:43;17.80;99.90
4687;DHT22;2357;47.316;-1.348;2023-05-10T11:19:11;18.40;99.90
4687;DHT22;2357;47.316;-1.348;2023-05-10T11:21:50;18.70;99.90
4687;DHT22;2357;47.316;-1.348;2023-05-10T11:24:19;18.70;99.90
4687;DHT22;2357;47.316;-1.348;2023-05-10T11:26:45;19.00;99.90
4687;DHT22;2357;47.316;-1.348;2023-05-10T11:29:13;19.00;99.90
4687;DHT22;2357;47.316;-1.348;2023-05-10T11:31:46;18.50;99.90
4687;DHT22;2357;47.316;-1.348;2023-05-10T11:34:31;18.50;99.90
4687;DHT22;2357;47.316;-1.348;2023-05-10T11:36:59;18.20;99.90
4687;DHT22;2357;47.316;-1.348;2023-05-10T11:39:30;17.80;99.90
4687;DHT22;2357;47.316;-1.348;2023-05-10T11:41:57;17.70;99.90
4687;DHT22;2357;47.316;-1.348;2023-05-10T11:44:23;17.80;99.90
4687;DHT22;2357;47.316;-1.348;2023-05-10T11:46:50;17.80;99.90
4687;DHT22;2357;47.316;-1.348;2023-05-10T11:49:15;17.90;99.90
4687;DHT22;2357;47.316;-1.348;2023-05-10T11:51:41;18.30;99.90
4687;DHT22;2357;47.316;-1.348;2023-05-10T11:54:11;18.80;99.90
4687;DHT22;2357;47.316;-1.348;2023-05-10T11:56:40;18.60;99.90
4687;DHT22;2357;47.316;-1.348;2023-05-10T11:59:06;18.30;99.90
4687;DHT22;2357;47.316;-1.348;2023-05-10T12:01:33;18.10;99.90
4687;DHT22;2357;47.316;-1.348;2023-05-10T12:03:59;18.40;99.90
4687;DHT22;2357;47.316;-1.348;2023-05-10T12:06:37;18.30;99.90
4687;DHT22;2357;47.316;-1.348;2023-05-10T12:09:09;17.90;99.90
4687;DHT22;2357;47.316;-1.348;2023-05-10T12:11:39;18.00;99.90
4687;DHT22;2357;47.316;-1.348;2023-05-10T12:14:06;17.80;99.90
4687;DHT22;2357;47.316;-1.348;2023-05-10T12:16:32;17.50;99.90
4687;DHT22;2357;47.316;-1.348;2023-05-10T12:18:59;17.20;99.90
4687;DHT22;2357;47.316;-1.348;2023-05-10T12:21:25;17.10;99.90
4687;DHT22;2357;47.316;-1.348;2023-05-10T12:23:53;17.60;99.90
4687;DHT22;2357;47.316;-1.348;2023-05-10T12:26:23;18.30;99.90
4687;DHT22;2357;47.316;-1.348;2023-05-10T12:28:49;19.00;99.90
4687;DHT22;2357;47.316;-1.348;2023-05-10T12:31:15;19.50;99.90
4687;DHT22;2357;47.316;-1.348;2023-05-10T12:33:44;19.80;99.90
4687;DHT22;2357;47.316;-1.348;2023-05-10T12:36:15;19.80;99.90
4687;DHT22;2357;47.316;-1.348;2023-05-10T12:38:42;19.40;99.90
4687;DHT22;2357;47.316;-1.348;2023-05-10T12:41:18;18.80;99.90
4687;DHT22;2357;47.316;-1.348;2023-05-10T12:43:44;18.40;99.90
4687;DHT22;2357;47.316;-1.348;2023-05-10T12:46:11;17.50;99.90
4687;DHT22;2357;47.316;-1.348;2023-05-10T12:48:38;17.50;99.90
4687;DHT22;2357;47.316;-1.348;2023-05-10T12:51:05;17.70;99.90
4687;DHT22;2357;47.316;-1.348;2023-05-10T12:53:35;17.60;99.90
4687;DHT22;2357;47.316;-1.348;2023-05-10T12:56:01;17.50;99.90
4687;DHT22;2357;47.316;-1.348;2023-05-10T12:58:26;17.40;99.90
4687;DHT22;2357;47.316;-1.348;2023-05-10T13:00:52;17.40;99.90
4687;DHT22;2357;47.316;-1.348;2023-05-10T13:03:18;17.30;99.90
4687;DHT22;2357;47.316;-1.348;2023-05-10T13:05:44;17.10;99.90
4687;DHT22;2357;47.316;-1.348;2023-05-10T13:08:09;17.00;99.90
4687;DHT22;2357;47.316;-1.348;2023-05-10T13:10:35;16.60;99.90
4687;DHT22;2357;47.316;-1.348;2023-05-10T13:13:01;16.20;99.90
4687;DHT22;2357;47.316;-1.348;2023-05-10T13:15:26;15.40;99.90
4687;DHT22;2357;47.316;-1.348;2023-05-10T13:17:53;15.30;99.90
4687;DHT22;2357;47.316;-1.348;2023-05-10T13:20:19;15.00;99.90
4687;DHT22;2357;47.316;-1.348;2023-05-10T13:22:44;15.00;99.90
4687;DHT22;2357;47.316;-1.348;2023-05-10T13:25:11;14.40;99.90
4687;DHT22;2357;47.316;-1.348;2023-05-10T13:27:38;14.50;99.90
4687;DHT22;2357;47.316;-1.348;2023-05-10T13:30:04;14.60;99.90
4687;DHT22;2357;47.316;-1.348;2023-05-10T13:32:30;14.70;99.90
4687;DHT22;2357;47.316;-1.348;2023-05-10T13:34:56;14.90;99.90
4687;DHT22;2357;47.316;-1.348;2023-05-10T13:37:22;14.90;99.90
4687;DHT22;2357;47.316;-1.348;2023-05-10T13:39:48;14.90;99.90
4687;DHT22;2357;47.316;-1.348;2023-05-10T13:42:13;14.70;99.90
4687;DHT22;2357;47.316;-1.348;2023-05-10T13:44:39;14.90;99.90
4687;DHT22;2357;47.316;-1.348;2023-05-10T13:47:05;15.10;99.90
4687;DHT22;2357;47.316;-1.348;2023-05-10T13:49:31;15.30;99.90
4687;DHT22;2357;47.316;-1.348;2023-05-10T13:51:57;15.30;99.90
4687;DHT22;2357;47.316;-1.348;2023-05-10T13:54:24;15.30;99.90
4687;DHT22;2357;47.316;-1.348;2023-05-10T13:56:49;15.60;99.90
4687;DHT22;2357;47.316;-1.348;2023-05-10T13:59:15;15.70;99.90
4687;DHT22;2357;47.316;-1.348;2023-05-10T14:01:41;15.80;99.90
4687;DHT22;2357;47.316;-1.348;2023-05-10T14:04:08;15.60;99.90
4687;DHT22;2357;47.316;-1.348;2023-05-10T14:06:36;16.00;99.90
4687;DHT22;2357;47.316;-1.348;2023-05-10T14:09:02;16.30;99.90
4687;DHT22;2357;47.316;-1.348;2023-05-10T14:11:28;16.70;99.90
4687;DHT22;2357;47.316;-1.348;2023-05-10T14:13:53;16.30;99.90
4687;DHT22;2357;47.316;-1.348;2023-05-10T14:16:19;16.50;99.90
4687;DHT22;2357;47.316;-1.348;2023-05-10T14:18:45;16.20;99.90
4687;DHT22;2357;47.316;-1.348;2023-05-10T14:21:11;15.90;99.90
4687;DHT22;2357;47.316;-1.348;2023-05-10T14:23:37;15.70;99.90
4687;DHT22;2357;47.316;-1.348;2023-05-10T14:26:03;15.40;99.90
4687;DHT22;2357;47.316;-1.348;2023-05-10T14:28:29;15.40;99.90
4687;DHT22;2357;47.316;-1.348;2023-05-10T14:30:54;14.90;99.90
4687;DHT22;2357;47.316;-1.348;2023-05-10T14:33:21;14.80;99.90
4687;DHT22;2357;47.316;-1.348;2023-05-10T14:35:47;14.90;99.90
4687;DHT22;2357;47.316;-1.348;2023-05-10T14:38:14;15.10;99.90
4687;DHT22;2357;47.316;-1.348;2023-05-10T14:40:40;15.10;99.90
4687;DHT22;2357;47.316;-1.348;2023-05-10T14:43:05;15.40;99.90
4687;DHT22;2357;47.316;-1.348;2023-05-10T14:45:31;15.60;99.90
4687;DHT22;2357;47.316;-1.348;2023-05-10T14:47:57;15.90;99.90
4687;DHT22;2357;47.316;-1.348;2023-05-10T14:50:23;16.40;99.90
4687;DHT22;2357;47.316;-1.348;2023-05-10T14:52:49;16.50;99.90
4687;DHT22;2357;47.316;-1.348;2023-05-10T14:55:15;16.90;99.90
4687;DHT22;2357;47.316;-1.348;2023-05-10T14:57:41;17.40;99.90
4687;DHT22;2357;47.316;-1.348;2023-05-10T15:00:07;17.50;99.90
4687;DHT22;2357;47.316;-1.348;2023-05-10T15:02:33;17.50;99.90
4687;DHT22;2357;47.316;-1.348;2023-05-10T15:04:59;17.40;99.90
4687;DHT22;2357;47.316;-1.348;2023-05-10T15:07:24;17.50;99.90
4687;DHT22;2357;47.316;-1.348;2023-05-10T15:09:50;17.30;99.90
4687;DHT22;2357;47.316;-1.348;2023-05-10T15:12:18;16.70;99.90
4687;DHT22;2357;47.316;-1.348;2023-05-10T15:14:43;16.30;99.90
4687;DHT22;2357;47.316;-1.348;2023-05-10T15:17:09;16.10;99.90
4687;DHT22;2357;47.316;-1.348;2023-05-10T15:19:35;16.20;99.90
4687;DHT22;2357;47.316;-1.348;2023-05-10T15:22:02;16.50;99.90
4687;DHT22;2357;47.316;-1.348;2023-05-10T15:24:28;16.30;99.90
4687;DHT22;2357;47.316;-1.348;2023-05-10T15:26:54;16.50;99.90
4687;DHT22;2357;47.316;-1.348;2023-05-10T15:29:19;16.70;99.90
4687;DHT22;2357;47.316;-1.348;2023-05-10T15:31:47;17.00;99.90
4687;DHT22;2357;47.316;-1.348;2023-05-10T15:34:13;16.60;99.90
4687;DHT22;2357;47.316;-1.348;2023-05-10T15:36:39;16.70;99.90
4687;DHT22;2357;47.316;-1.348;2023-05-10T15:39:05;17.00;99.90
4687;DHT22;2357;47.316;-1.348;2023-05-10T15:41:30;17.20;99.90
4687;DHT22;2357;47.316;-1.348;2023-05-10T15:43:57;17.30;99.90
4687;DHT22;2357;47.316;-1.348;2023-05-10T15:46:25;17.10;99.90
4687;DHT22;2357;47.316;-1.348;2023-05-10T15:48:51;16.90;99.90
4687;DHT22;2357;47.316;-1.348;2023-05-10T15:51:16;16.70;99.90
4687;DHT22;2357;47.316;-1.348;2023-05-10T15:53:42;16.50;99.90
4687;DHT22;2357;47.316;-1.348;2023-05-10T15:56:07;16.30;99.90
4687;DHT22;2357;47.316;-1.348;2023-05-10T15:58:33;16.30;99.90
4687;DHT22;2357;47.316;-1.348;2023-05-10T16:00:59;16.10;99.90
4687;DHT22;2357;47.316;-1.348;2023-05-10T16:03:25;16.00;99.90
4687;DHT22;2357;47.316;-1.348;2023-05-10T16:05:50;15.90;99.90
4687;DHT22;2357;47.316;-1.348;2023-05-10T16:08:16;15.90;99.90
4687;DHT22;2357;47.316;-1.348;2023-05-10T16:10:42;16.10;99.90
4687;DHT22;2357;47.316;-1.348;2023-05-10T16:13:07;16.00;99.90
4687;DHT22;2357;47.316;-1.348;2023-05-10T16:15:33;16.10;99.90